Time;durP1;ratioP1;P1;durP2;ratioP2;P2;SDS_P1;SDS_P2;PMS_P1;PMS_P2;Temp;Humidity;BMP_temperature;BMP_pressure;BME280_temperature;BME280_humidity;BME280_pressure;Samples;Min_cycle;Max_cycle;Signal;HPM_P1;HPM_P2
2023/02/10 00:01:14;;;;;;;59.10;30.42;;;-0.50;99.90;;;;;;5051518;28;20136;-59
2023/02/10 00:03:39;;;;;;;55.40;30.75;;;-0.50;99.90;;;;;;5051206;28;20503;-57
2023/02/10 00:06:06;;;;;;;57.38;29.90;;;-0.60;99.90;;;;;;5033514;28;20029;-59
2023/02/10 00:08:32;;;;;;;51.83;28.60;;;-0.60;99.90;;;;;;5033679;28;20025;-61
2023/02/10 00:10:59;;;;;;;57.65;31.65;;;-0.60;99.90;;;;;;5051554;28;20025;-54
2023/02/10 00:13:25;;;;;;;55.88;31.52;;;-0.70;99.90;;;;;;5051128;28;20025;-61
2023/02/10 00:15:51;;;;;;;58.15;31.88;;;-0.70;99.90;;;;;;5051256;28;20032;-61
2023/02/10 00:18:17;;;;;;;53.15;29.45;;;-0.70;99.90;;;;;;5051396;28;20028;-61
2023/02/10 00:20:43;;;;;;;54.85;30.65;;;-0.80;99.90;;;;;;5051414;28;20104;-60
2023/02/10 00:23:08;;;;;;;57.05;29.52;;;-0.80;99.90;;;;;;5051042;28;20032;-60
2023/02/10 00:25:37;;;;;;;61.95;31.00;;;-0.70;99.90;;;;;;5033375;28;20033;-61
2023/02/10 00:28:03;;;;;;;53.13;30.35;;;-0.80;99.90;;;;;;5051253;28;20391;-59
2023/02/10 00:30:29;;;;;;;61.17;31.38;;;-0.80;99.90;;;;;;5033418;28;20138;-61
2023/02/10 00:32:55;;;;;;;56.45;31.00;;;-0.80;99.90;;;;;;5051102;28;20378;-59
2023/02/10 00:35:21;;;;;;;62.53;32.85;;;-0.80;99.90;;;;;;5033276;28;20055;-60
2023/02/10 00:37:46;;;;;;;54.63;29.83;;;-0.80;99.90;;;;;;5033307;28;20028;-58
2023/02/10 00:40:12;;;;;;;59.22;32.15;;;-0.80;99.90;;;;;;5051134;28;20049;-59
2023/02/10 00:42:38;;;;;;;53.92;30.45;;;-0.80;99.90;;;;;;5050979;28;20029;-59
2023/02/10 00:45:04;;;;;;;54.47;27.83;;;-0.80;99.90;;;;;;5033462;28;20516;-61
2023/02/10 00:47:29;;;;;;;51.22;29.63;;;-0.80;99.90;;;;;;5051266;28;20394;-58
2023/02/10 00:49:55;;;;;;;50.72;28.55;;;-0.80;99.90;;;;;;5051290;28;20025;-59
2023/02/10 00:52:22;;;;;;;62.17;29.35;;;-0.80;99.90;;;;;;5050789;28;20072;-60
2023/02/10 00:54:47;;;;;;;57.22;32.00;;;-0.80;99.90;;;;;;5054118;28;20028;-61
2023/02/10 00:57:13;;;;;;;55.88;31.70;;;-0.90;99.90;;;;;;5055039;28;20180;-59
2023/02/10 00:59:38;;;;;;;54.30;30.65;;;-0.90;99.90;;;;;;5054993;28;20025;-61
2023/02/10 01:02:04;;;;;;;56.55;29.85;;;-0.80;99.90;;;;;;5054658;28;20032;-61
2023/02/10 01:04:29;;;;;;;57.10;29.83;;;-0.80;99.90;;;;;;5054569;28;20075;-60
2023/02/10 01:06:55;;;;;;;59.67;31.38;;;-0.80;99.90;;;;;;5054675;28;20025;-60
2023/02/10 01:09:20;;;;;;;51.03;30.02;;;-0.80;99.90;;;;;;5037093;28;20504;-61
2023/02/10 01:11:46;;;;;;;59.28;31.30;;;-0.90;99.90;;;;;;5054506;28;20025;-57
2023/02/10 01:14:12;;;;;;;50.75;29.17;;;-0.90;99.90;;;;;;5054383;28;20484;-61
2023/02/10 01:16:37;;;;;;;55.85;30.25;;;-0.90;99.90;;;;;;5054868;28;20029;-61
2023/02/10 01:19:03;;;;;;;53.15;29.65;;;-1.00;99.90;;;;;;5054457;28;20025;-61
2023/02/10 01:21:29;;;;;;;50.65;30.85;;;-1.00;99.90;;;;;;5054248;28;20032;-61
2023/02/10 01:23:55;;;;;;;58.83;29.65;;;-1.10;99.90;;;;;;5054129;28;20396;-59
2023/02/10 01:26:21;;;;;;;61.58;30.65;;;-1.00;99.90;;;;;;5036489;28;20021;-59
2023/02/10 01:28:47;;;;;;;58.83;31.30;;;-1.00;99.90;;;;;;5054362;28;20025;-59
2023/02/10 01:31:15;;;;;;;56.10;30.58;;;-1.00;99.90;;;;;;5054361;28;20017;-59
2023/02/10 01:33:41;;;;;;;50.15;27.83;;;-1.00;99.90;;;;;;5053850;28;20036;-59
2023/02/10 01:36:15;;;;;;;49.83;28.52;;;-1.10;99.90;;;;;;5054066;28;20028;-61
2023/02/10 01:38:41;;;;;;;62.95;32.08;;;-1.20;99.90;;;;;;5054272;28;20520;-61
2023/02/10 01:41:08;;;;;;;57.20;31.92;;;-1.10;99.90;;;;;;5054093;28;20104;-61
2023/02/10 01:43:52;;;;;;;54.50;28.83;;;-1.10;99.90;;;;;;5053753;28;20075;-61
2023/02/10 01:46:18;;;;;;;52.88;29.25;;;-1.00;99.90;;;;;;5036056;28;20023;-62
2023/02/10 01:48:43;;;;;;;51.47;29.10;;;-1.00;99.90;;;;;;5053985;28;20104;-58
2023/02/10 01:51:09;;;;;;;52.67;28.92;;;-1.00;99.90;;;;;;5053997;28;20023;-58
2023/02/10 01:53:35;;;;;;;58.47;30.83;;;-1.00;99.90;;;;;;5053602;28;20037;-60
2023/02/10 01:56:02;;;;;;;51.10;27.60;;;-1.10;99.90;;;;;;5053506;28;20104;-60
2023/02/10 01:58:31;;;;;;;55.47;29.13;;;-1.20;99.90;;;;;;5053644;28;20025;-57
2023/02/10 02:00:57;;;;;;;62.25;31.52;;;-1.30;99.90;;;;;;5053653;28;20033;-61
2023/02/10 02:03:22;;;;;;;52.67;31.02;;;-1.30;99.90;;;;;;5053443;28;20029;-59
2023/02/10 02:05:48;;;;;;;50.00;28.48;;;-1.40;99.90;;;;;;5035195;28;20131;-59
2023/02/10 02:08:23;;;;;;;57.55;32.03;;;-1.40;99.90;;;;;;5053696;28;20025;-58
2023/02/10 02:11:15;;;;;;;52.45;30.42;;;-1.40;99.90;;;;;;5054123;28;20025;-59
2023/02/10 02:13:49;;;;;;;56.38;28.65;;;-1.50;99.90;;;;;;5053192;28;20033;-55
2023/02/10 02:16:52;;;;;;;56.63;29.95;;;-1.40;99.90;;;;;;5053539;28;20048;-61
2023/02/10 02:19:49;;;;;;;47.33;27.23;;;-1.40;99.90;;;;;;5053383;28;20031;-61
2023/02/10 02:22:32;;;;;;;53.85;29.35;;;-1.40;99.90;;;;;;5053373;28;20021;-60
2023/02/10 02:25:20;;;;;;;55.28;29.25;;;-1.40;99.90;;;;;;5053054;28;20024;-59
2023/02/10 02:28:01;;;;;;;52.25;29.52;;;-1.40;99.90;;;;;;5053350;28;20100;-59
2023/02/10 02:30:39;;;;;;;52.97;29.77;;;-1.40;99.90;;;;;;5035534;28;20024;-58
2023/02/10 02:33:17;;;;;;;51.97;29.58;;;-1.40;99.90;;;;;;5053060;28;20035;-61
2023/02/10 02:35:51;;;;;;;52.90;28.80;;;-1.40;99.90;;;;;;5052884;28;20025;-59
2023/02/10 02:38:17;;;;;;;54.45;30.45;;;-1.40;99.90;;;;;;5052971;28;20064;-59
2023/02/10 02:40:42;;;;;;;48.28;27.58;;;-1.40;99.90;;;;;;5053134;28;20063;-56
2023/02/10 02:43:08;;;;;;;53.03;30.05;;;-1.30;99.90;;;;;;5052848;28;20465;-58
2023/02/10 02:46:01;;;;;;;53.05;29.98;;;-1.30;99.90;;;;;;5035106;28;20031;-59
2023/02/10 02:48:51;;;;;;;53.22;28.30;;;-1.20;99.90;;;;;;5046390;28;20579;-60
2023/02/10 02:51:41;;;;;;;50.35;27.42;;;-1.20;99.90;;;;;;5053225;28;20060;-58
2023/02/10 02:54:06;;;;;;;48.80;28.20;;;-1.40;99.90;;;;;;5052343;28;20032;-57
2023/02/10 02:56:47;;;;;;;53.42;27.30;;;-1.40;99.90;;;;;;5034841;28;20116;-58
2023/02/10 02:59:37;;;;;;;49.30;28.20;;;-1.50;99.90;;;;;;5034828;28;20091;-57
2023/02/10 03:02:06;;;;;;;54.83;31.42;;;-1.50;99.90;;;;;;5052501;28;20025;-60
2023/02/10 03:04:33;;;;;;;51.85;27.92;;;-1.40;99.90;;;;;;5052159;28;20451;-60
2023/02/10 03:07:00;;;;;;;51.00;28.17;;;-1.40;99.90;;;;;;5052556;28;20392;-58
2023/02/10 03:09:27;;;;;;;72.03;32.22;;;-1.40;99.90;;;;;;5034669;28;20032;-61
2023/02/10 03:11:52;;;;;;;53.35;29.67;;;-1.40;99.90;;;;;;5052317;28;20060;-57
2023/02/10 03:14:18;;;;;;;55.05;31.38;;;-1.30;99.90;;;;;;5034159;28;20457;-59
2023/02/10 03:16:43;;;;;;;48.63;27.95;;;-1.20;99.90;;;;;;5033809;28;20488;-59
2023/02/10 03:19:10;;;;;;;52.45;28.52;;;-1.10;99.90;;;;;;5052189;28;20025;-60
2023/02/10 03:21:35;;;;;;;54.63;29.88;;;-1.10;99.90;;;;;;5052383;28;20025;-59
2023/02/10 03:24:01;;;;;;;53.83;27.63;;;-1.10;99.90;;;;;;5034116;28;20095;-58
2023/02/10 03:26:30;;;;;;;49.83;28.65;;;-1.10;99.90;;;;;;5052186;28;20021;-60
2023/02/10 03:28:55;;;;;;;49.20;27.98;;;-1.10;99.90;;;;;;5052208;28;20489;-58
2023/02/10 03:31:21;;;;;;;53.63;29.40;;;-1.00;99.90;;;;;;5052107;28;20029;-59
2023/02/10 03:33:47;;;;;;;55.03;30.65;;;-1.00;99.90;;;;;;5033827;28;20606;-59
2023/02/10 03:36:13;;;;;;;56.75;30.85;;;-1.00;99.90;;;;;;5034095;28;20123;-60
2023/02/10 03:38:38;;;;;;;52.22;29.92;;;-1.00;99.90;;;;;;5051922;28;20029;-57
2023/02/10 03:41:04;;;;;;;50.35;28.98;;;-1.10;99.90;;;;;;5034009;28;20029;-58
2023/02/10 03:43:30;;;;;;;57.55;29.25;;;-1.00;99.90;;;;;;5051558;28;20033;-61
2023/02/10 03:45:59;;;;;;;60.33;29.95;;;-1.00;99.90;;;;;;5051724;28;20107;-58
2023/02/10 03:48:30;;;;;;;51.78;29.10;;;-1.10;99.90;;;;;;5051586;28;20021;-57
2023/02/10 03:50:56;;;;;;;58.63;30.05;;;-1.00;99.90;;;;;;5033954;28;20021;-58
2023/02/10 03:53:22;;;;;;;58.08;29.50;;;-1.00;99.90;;;;;;5051364;28;20036;-58
2023/02/10 03:55:47;;;;;;;54.50;28.55;;;-0.80;99.90;;;;;;5033332;28;20032;-56
2023/02/10 03:58:13;;;;;;;54.65;28.75;;;-0.60;99.90;;;;;;5051532;28;20075;-58
2023/02/10 04:00:38;;;;;;;53.03;30.55;;;-0.60;99.90;;;;;;5051536;28;20033;-56
2023/02/10 04:03:04;;;;;;;49.53;28.95;;;-0.50;99.90;;;;;;5051152;28;20435;-60
2023/02/10 04:05:29;;;;;;;50.33;30.00;;;-0.50;99.90;;;;;;5051395;28;20029;-60
2023/02/10 04:07:55;;;;;;;56.58;30.30;;;-0.40;99.90;;;;;;5051575;28;20033;-59
2023/02/10 04:10:20;;;;;;;60.47;30.20;;;-0.40;99.90;;;;;;5051371;28;20028;-59
2023/02/10 04:12:47;;;;;;;50.17;27.30;;;-0.40;99.90;;;;;;5051262;28;20070;-61
2023/02/10 04:15:12;;;;;;;55.00;28.65;;;-0.40;99.90;;;;;;5051386;28;20057;-58
2023/02/10 04:17:38;;;;;;;55.65;30.60;;;-0.30;99.90;;;;;;5051224;28;20060;-61
2023/02/10 04:20:04;;;;;;;52.67;29.17;;;-0.30;99.90;;;;;;5051368;28;20038;-61
2023/02/10 04:22:29;;;;;;;52.17;29.45;;;-0.30;99.90;;;;;;5033269;28;20039;-59
2023/02/10 04:24:55;;;;;;;50.75;29.20;;;-0.30;99.90;;;;;;5051168;28;20545;-60
2023/02/10 04:27:20;;;;;;;53.60;28.88;;;-0.30;99.90;;;;;;5034423;28;20044;-58
2023/02/10 04:29:46;;;;;;;57.67;29.75;;;-0.40;99.90;;;;;;5055448;28;20059;-59
2023/02/10 04:32:11;;;;;;;54.08;28.80;;;-0.40;99.90;;;;;;5056459;28;20029;-60
2023/02/10 04:34:37;;;;;;;54.08;29.17;;;-0.40;99.90;;;;;;5040495;28;20013;-61
2023/02/10 04:37:02;;;;;;;50.50;27.77;;;-0.40;99.90;;;;;;5040739;28;20518;-61
2023/02/10 04:39:28;;;;;;;47.63;28.88;;;-0.40;99.90;;;;;;5057378;28;20071;-57
2023/02/10 04:41:53;;;;;;;50.83;29.92;;;-0.30;99.90;;;;;;5057454;28;20021;-57
2023/02/10 04:44:19;;;;;;;53.05;28.48;;;-0.30;99.90;;;;;;5056521;28;20056;-58
2023/02/10 04:46:44;;;;;;;53.83;28.30;;;-0.20;99.90;;;;;;5039061;28;20083;-60
2023/02/10 04:49:10;;;;;;;45.08;28.38;;;-0.20;99.90;;;;;;5056956;28;20032;-58
2023/02/10 04:51:35;;;;;;;55.35;29.88;;;-0.10;99.90;;;;;;5057087;28;20029;-60
2023/02/10 04:54:01;;;;;;;50.17;28.90;;;0.00;99.90;;;;;;5065619;22;20049;-59
2023/02/10 04:56:26;;;;;;;51.47;28.77;;;0.10;99.90;;;;;;5024427;28;20040;-57
2023/02/10 04:58:52;;;;;;;51.53;27.70;;;0.00;99.90;;;;;;5025894;28;20346;-54
2023/02/10 05:01:18;;;;;;;51.17;29.35;;;0.10;99.90;;;;;;5042542;28;20071;-55
2023/02/10 05:03:43;;;;;;;57.53;28.88;;;0.10;99.90;;;;;;5042479;28;20034;-55
2023/02/10 05:06:14;;;;;;;52.75;29.98;;;0.00;99.90;;;;;;5043170;28;20025;-55
2023/02/10 05:08:41;;;;;;;53.13;29.63;;;0.00;99.90;;;;;;5042650;28;20104;-56
2023/02/10 05:11:12;;;;;;;53.15;29.30;;;0.10;99.90;;;;;;5042968;28;20043;-54
2023/02/10 05:13:39;;;;;;;54.42;28.92;;;0.10;99.90;;;;;;5042468;28;20034;-56
2023/02/10 05:16:05;;;;;;;50.40;30.13;;;0.10;99.90;;;;;;5042628;28;20017;-52
2023/02/10 05:18:32;;;;;;;51.35;28.38;;;0.20;99.90;;;;;;5024040;28;20029;-53
2023/02/10 05:20:58;;;;;;;52.78;27.85;;;0.10;99.90;;;;;;5024010;28;20033;-55
2023/02/10 05:23:24;;;;;;;53.13;29.10;;;0.20;99.90;;;;;;5041454;28;20093;-55
2023/02/10 05:25:50;;;;;;;51.25;29.30;;;0.20;99.90;;;;;;5024865;28;20485;-56
2023/02/10 05:28:15;;;;;;;53.28;30.98;;;0.20;99.90;;;;;;5042125;28;20032;-53
2023/02/10 05:30:41;;;;;;;52.58;28.42;;;0.20;99.90;;;;;;5042027;28;20025;-54
2023/02/10 05:33:07;;;;;;;62.55;30.00;;;0.20;99.90;;;;;;5042649;28;20092;-53
2023/02/10 05:35:32;;;;;;;53.25;28.23;;;0.20;99.90;;;;;;5042353;28;20021;-58
2023/02/10 05:37:58;;;;;;;51.03;27.52;;;0.20;99.90;;;;;;5041993;28;20037;-56
2023/02/10 05:40:23;;;;;;;48.97;27.30;;;0.20;99.90;;;;;;5041296;28;20093;-57
2023/02/10 05:42:49;;;;;;;52.67;29.20;;;0.20;99.90;;;;;;5041204;28;20439;-55
2023/02/10 05:45:15;;;;;;;58.92;30.48;;;0.20;99.90;;;;;;5023673;28;20120;-53
2023/02/10 05:47:40;;;;;;;53.97;29.95;;;0.20;99.90;;;;;;5023809;28;20202;-54
2023/02/10 05:50:06;;;;;;;49.60;29.27;;;0.30;99.90;;;;;;5041847;28;20025;-55
2023/02/10 05:52:32;;;;;;;52.70;27.88;;;0.30;99.90;;;;;;5042265;28;20036;-57
2023/02/10 05:54:57;;;;;;;57.38;30.00;;;0.40;99.90;;;;;;5023887;28;20026;-58
2023/02/10 05:57:23;;;;;;;48.70;28.15;;;0.30;99.90;;;;;;5024317;28;20033;-56
2023/02/10 05:59:48;;;;;;;62.20;31.73;;;0.30;99.90;;;;;;5042081;28;20036;-57
2023/02/10 06:02:14;;;;;;;52.13;28.55;;;0.20;99.90;;;;;;5041432;28;20065;-50
2023/02/10 06:04:39;;;;;;;53.22;30.25;;;0.20;99.90;;;;;;5041755;28;20449;-57
2023/02/10 06:07:05;;;;;;;52.80;29.33;;;0.10;99.90;;;;;;5023588;28;20116;-57
2023/02/10 06:09:31;;;;;;;54.72;30.55;;;0.10;99.90;;;;;;5023396;28;20025;-57
2023/02/10 06:11:56;;;;;;;51.42;30.75;;;0.00;99.90;;;;;;5041713;28;20144;-57
2023/02/10 06:14:22;;;;;;;52.20;29.02;;;0.00;99.90;;;;;;5040284;28;20116;-58
2023/02/10 06:16:48;;;;;;;56.55;30.98;;;0.10;99.90;;;;;;5040236;28;20056;-55
2023/02/10 06:19:13;;;;;;;61.78;31.55;;;0.00;99.90;;;;;;5022767;28;20080;-58
2023/02/10 06:21:39;;;;;;;58.58;30.85;;;0.00;99.90;;;;;;5040008;28;20500;-54
2023/02/10 06:24:04;;;;;;;54.88;32.20;;;0.00;99.90;;;;;;5022418;28;20026;-56
2023/02/10 06:26:30;;;;;;;52.45;29.73;;;0.00;99.90;;;;;;5022668;28;20028;-57
2023/02/10 06:28:56;;;;;;;54.85;30.40;;;-0.10;99.90;;;;;;5040252;28;20117;-55
2023/02/10 06:31:21;;;;;;;54.30;29.08;;;-0.10;99.90;;;;;;5021408;28;20485;-57
2023/02/10 06:33:47;;;;;;;52.08;29.10;;;-0.10;99.90;;;;;;5037456;28;20029;-56
2023/02/10 06:36:13;;;;;;;50.70;29.27;;;-0.10;99.90;;;;;;5039034;28;20030;-56
2023/02/10 06:38:39;;;;;;;55.47;30.25;;;-0.10;99.90;;;;;;5040665;28;20489;-57
2023/02/10 06:41:05;;;;;;;57.92;30.02;;;-0.10;99.90;;;;;;5040449;28;20035;-58
2023/02/10 06:43:32;;;;;;;48.65;29.27;;;-0.10;99.90;;;;;;5039343;28;20113;-56
2023/02/10 06:45:57;;;;;;;52.83;29.80;;;-0.10;99.90;;;;;;5039035;28;20022;-56
2023/02/10 06:48:23;;;;;;;56.38;31.13;;;-0.10;99.90;;;;;;5039635;28;20374;-53
2023/02/10 06:50:48;;;;;;;50.35;28.83;;;-0.10;99.90;;;;;;5020204;28;20044;-54
2023/02/10 06:53:14;;;;;;;52.85;29.30;;;-0.10;99.90;;;;;;5039441;28;20040;-57
2023/02/10 06:55:39;;;;;;;50.05;29.33;;;0.00;99.90;;;;;;5039076;28;20052;-58
2023/02/10 06:58:05;;;;;;;56.58;30.25;;;0.00;99.90;;;;;;5039540;28;20037;-54
2023/02/10 07:00:34;;;;;;;53.17;28.73;;;0.00;99.90;;;;;;5042175;28;20026;-51
2023/02/10 07:02:59;;;;;;;59.03;29.33;;;0.10;99.90;;;;;;5041275;28;20033;-52
2023/02/10 07:05:25;;;;;;;51.70;29.60;;;0.00;99.90;;;;;;5040539;28;20097;-55
2023/02/10 07:07:50;;;;;;;50.20;28.70;;;0.10;99.90;;;;;;5021766;28;20018;-58
2023/02/10 07:10:17;;;;;;;51.15;28.70;;;0.10;99.90;;;;;;5039924;28;20132;-52
2023/02/10 07:12:43;;;;;;;52.20;30.85;;;0.10;99.90;;;;;;5021984;28;20025;-58
2023/02/10 07:15:09;;;;;;;55.05;28.65;;;0.10;99.90;;;;;;5039371;28;20039;-53
2023/02/10 07:17:36;;;;;;;52.28;29.42;;;0.30;99.90;;;;;;5039740;28;20103;-56
2023/02/10 07:20:02;;;;;;;53.95;28.70;;;0.30;99.90;;;;;;5039881;28;20085;-58
2023/02/10 07:22:28;;;;;;;51.30;30.13;;;0.40;99.90;;;;;;5040585;28;20116;-58
2023/02/10 07:24:53;;;;;;;54.78;29.33;;;0.40;99.90;;;;;;5022197;28;20055;-57
2023/02/10 07:27:19;;;;;;;52.40;28.50;;;0.30;99.90;;;;;;5040649;28;20461;-57
2023/02/10 07:29:45;;;;;;;51.75;28.70;;;0.20;99.90;;;;;;5022453;28;20378;-58
2023/02/10 07:32:10;;;;;;;60.00;30.67;;;0.20;99.90;;;;;;5040153;28;20064;-56
2023/02/10 07:34:36;;;;;;;51.55;29.55;;;0.20;99.90;;;;;;5040091;28;20064;-59
2023/02/10 07:37:01;;;;;;;52.70;30.02;;;0.30;99.90;;;;;;5039789;28;20096;-55
2023/02/10 07:39:27;;;;;;;52.92;30.17;;;0.40;99.90;;;;;;5040106;28;20032;-58
2023/02/10 07:41:53;;;;;;;62.92;30.67;;;0.50;99.90;;;;;;5038198;28;20036;-57
2023/02/10 07:44:20;;;;;;;54.17;30.45;;;0.60;99.90;;;;;;5038591;28;20033;-54
2023/02/10 07:46:46;;;;;;;47.25;28.55;;;0.60;99.90;;;;;;5021502;28;20032;-57
2023/02/10 07:49:12;;;;;;;53.38;30.40;;;0.60;99.90;;;;;;5020112;28;20443;-56
2023/02/10 07:51:37;;;;;;;53.65;31.08;;;0.60;99.90;;;;;;5039184;28;20090;-58
2023/02/10 07:54:03;;;;;;;61.30;33.50;;;0.60;99.90;;;;;;5037504;28;20536;-56
2023/02/10 07:56:28;;;;;;;54.92;30.25;;;0.60;99.90;;;;;;5038036;28;20107;-57
2023/02/10 07:58:55;;;;;;;54.13;30.40;;;0.60;99.90;;;;;;5038243;28;20045;-58
2023/02/10 08:01:20;;;;;;;56.28;30.83;;;0.70;99.90;;;;;;5037603;28;20036;-57
2023/02/10 08:03:46;;;;;;;55.53;31.20;;;0.60;99.90;;;;;;5036318;28;20400;-56
2023/02/10 08:06:11;;;;;;;60.65;29.98;;;0.60;99.90;;;;;;5036599;28;20030;-58
2023/02/10 08:08:37;;;;;;;57.40;33.42;;;0.60;99.90;;;;;;5036248;28;20477;-53
2023/02/10 08:11:06;;;;;;;52.70;30.13;;;0.50;99.90;;;;;;5020844;28;20022;-53
2023/02/10 08:13:32;;;;;;;50.22;29.58;;;0.70;99.90;;;;;;5038979;28;20432;-52
2023/02/10 08:15:58;;;;;;;48.00;30.65;;;0.70;99.90;;;;;;5038460;28;20100;-52
2023/02/10 08:18:23;;;;;;;48.88;28.73;;;0.70;99.90;;;;;;5039438;28;20061;-52
2023/02/10 08:20:49;;;;;;;50.13;29.00;;;0.70;99.90;;;;;;5039644;28;20071;-52
2023/02/10 08:23:16;;;;;;;54.70;30.70;;;0.70;99.90;;;;;;5029900;28;20025;-49
2023/02/10 08:25:42;;;;;;;54.25;30.85;;;0.70;99.90;;;;;;5030832;28;20044;-51
2023/02/10 08:28:07;;;;;;;53.85;29.80;;;0.70;99.90;;;;;;5031264;28;20104;-51
2023/02/10 08:30:33;;;;;;;55.63;29.73;;;0.70;99.90;;;;;;5031385;28;20033;-52
2023/02/10 08:32:58;;;;;;;54.33;30.88;;;0.80;99.90;;;;;;5026102;28;20575;-51
2023/02/10 08:35:25;;;;;;;56.45;30.13;;;0.80;99.90;;;;;;5026918;28;20041;-61
2023/02/10 08:37:51;;;;;;;60.60;31.73;;;0.90;99.90;;;;;;5029619;28;20033;-52
2023/02/10 08:40:16;;;;;;;54.03;30.33;;;0.90;99.90;;;;;;5030473;28;20034;-51
2023/02/10 08:42:42;;;;;;;51.83;30.27;;;1.00;99.90;;;;;;5002160;28;20401;-53
2023/02/10 08:45:08;;;;;;;57.15;32.58;;;1.10;99.90;;;;;;4999123;28;20040;-52
2023/02/10 08:47:34;;;;;;;55.22;30.75;;;1.20;99.90;;;;;;5030901;28;20038;-57
2023/02/10 08:50:00;;;;;;;52.65;30.13;;;1.20;99.90;;;;;;5030734;28;20108;-53
2023/02/10 08:52:25;;;;;;;54.83;29.60;;;1.20;99.90;;;;;;5013171;28;20096;-55
2023/02/10 08:54:51;;;;;;;55.33;30.85;;;1.30;99.90;;;;;;5030904;28;20393;-53
2023/02/10 08:57:17;;;;;;;55.10;30.02;;;1.50;99.90;;;;;;5030965;28;20155;-51
2023/02/10 08:59:43;;;;;;;55.10;31.40;;;1.50;99.90;;;;;;5031143;28;20022;-54
2023/02/10 09:02:11;;;;;;;47.78;29.40;;;1.60;99.90;;;;;;5013255;28;20059;-56
2023/02/10 09:04:37;;;;;;;51.72;31.38;;;1.60;99.90;;;;;;5013162;28;20021;-52
2023/02/10 09:07:02;;;;;;;57.63;30.27;;;1.70;99.90;;;;;;5033759;28;20489;-55
2023/02/10 09:09:28;;;;;;;55.42;31.25;;;1.80;99.90;;;;;;5036031;28;20079;-55
2023/02/10 09:11:54;;;;;;;56.45;31.05;;;1.70;99.90;;;;;;5018303;28;20029;-55
2023/02/10 09:14:20;;;;;;;54.17;29.98;;;1.80;99.90;;;;;;5019841;28;20041;-56
2023/02/10 09:16:45;;;;;;;53.08;30.30;;;2.00;99.90;;;;;;5022100;28;20033;-56
2023/02/10 09:19:11;;;;;;;49.30;29.88;;;2.10;99.90;;;;;;5040237;28;20140;-58
2023/02/10 09:21:37;;;;;;;51.72;29.85;;;2.40;99.90;;;;;;5039782;28;20164;-58
2023/02/10 09:24:02;;;;;;;52.22;30.77;;;2.70;99.90;;;;;;5040394;28;20392;-58
2023/02/10 09:26:28;;;;;;;52.42;31.10;;;3.20;99.90;;;;;;5041181;28;20068;-59
2023/02/10 09:28:53;;;;;;;51.35;31.83;;;3.70;99.90;;;;;;5024296;28;20070;-58
2023/02/10 09:31:19;;;;;;;50.25;31.48;;;4.30;99.90;;;;;;5041422;28;20079;-51
2023/02/10 09:33:45;;;;;;;48.55;29.38;;;5.20;99.90;;;;;;5022792;28;20040;-57
2023/02/10 09:36:17;;;;;;;45.10;29.30;;;5.10;99.90;;;;;;5037213;28;20040;-54
2023/02/10 09:38:43;;;;;;;49.42;29.73;;;5.40;99.90;;;;;;5019720;28;20048;-53
2023/02/10 09:41:25;;;;;;;51.20;31.05;;;5.60;99.90;;;;;;5035968;28;20025;-57
2023/02/10 09:44:01;;;;;;;53.72;29.83;;;5.70;99.90;;;;;;5019291;28;20073;-57
2023/02/10 09:46:45;;;;;;;49.33;30.42;;;5.40;99.90;;;;;;5019227;28;20029;-57
2023/02/10 09:49:32;;;;;;;50.60;30.77;;;5.50;99.90;;;;;;5037112;28;20561;-59
2023/02/10 09:52:34;;;;;;;52.13;30.73;;;5.60;99.90;;;;;;5038606;28;20542;-54
2023/02/10 09:55:01;;;;;;;49.42;30.45;;;5.90;99.90;;;;;;5020241;28;20029;-55
2023/02/10 09:57:36;;;;;;;53.92;33.10;;;5.80;99.90;;;;;;5020358;28;20034;-54
2023/02/10 10:00:04;;;;;;;53.03;32.58;;;5.70;99.90;;;;;;5020612;28;20455;-57
2023/02/10 10:02:46;;;;;;;49.50;31.88;;;6.10;99.90;;;;;;5039242;28;20436;-56
2023/02/10 10:05:41;;;;;;;51.63;34.03;;;6.40;99.90;;;;;;5040162;28;20021;-52
2023/02/10 10:08:26;;;;;;;56.70;33.63;;;6.50;99.90;;;;;;5002889;28;20069;-57
2023/02/10 10:10:55;;;;;;;58.38;33.35;;;6.00;99.90;;;;;;5020570;28;20030;-56
2023/02/10 10:13:27;;;;;;;57.55;34.17;;;5.70;99.90;;;;;;5019317;28;20045;-56
2023/02/10 10:16:16;;;;;;;55.80;33.38;;;5.80;99.90;;;;;;5002506;28;20040;-57
2023/02/10 10:19:01;;;;;;;56.28;31.92;;;5.90;99.90;;;;;;5020566;28;20026;-56
2023/02/10 10:21:48;;;;;;;52.92;32.13;;;6.10;99.90;;;;;;5003084;28;20314;-55
2023/02/10 10:24:38;;;;;;;49.25;31.65;;;5.90;99.90;;;;;;5031445;28;20041;-56
2023/02/10 10:27:03;;;;;;;52.05;33.05;;;5.80;99.90;;;;;;5000857;28;20128;-57
2023/02/10 10:29:54;;;;;;;48.42;31.42;;;5.80;99.90;;;;;;5036327;28;20060;-59
2023/02/10 10:32:37;;;;;;;54.30;31.45;;;5.70;99.90;;;;;;5020434;28;20044;-53
2023/02/10 10:35:10;;;;;;;51.65;29.67;;;5.50;99.90;;;;;;4996246;28;20072;-59
2023/02/10 10:37:36;;;;;;;55.95;30.70;;;5.20;99.90;;;;;;5031870;28;20033;-58
2023/02/10 10:40:05;;;;;;;55.17;31.42;;;5.10;99.90;;;;;;5032962;28;20425;-61
2023/02/10 10:42:47;;;;;;;50.60;31.40;;;5.10;99.90;;;;;;5032877;28;20032;-62
2023/02/10 10:45:35;;;;;;;47.55;29.08;;;5.20;99.90;;;;;;5015734;28;20017;-52
2023/02/10 10:48:07;;;;;;;49.60;29.90;;;5.40;99.90;;;;;;5033306;28;20060;-55
2023/02/10 10:50:34;;;;;;;52.80;31.10;;;5.80;99.90;;;;;;5033471;28;20021;-56
2023/02/10 10:53:04;;;;;;;48.55;30.23;;;6.00;99.90;;;;;;5030494;23;20104;-53
2023/02/10 10:55:37;;;;;;;54.95;31.40;;;6.10;99.90;;;;;;5031212;28;20419;-49
2023/02/10 10:58:23;;;;;;;49.67;29.98;;;6.30;99.90;;;;;;5032865;28;20021;-53
2023/02/10 11:00:50;;;;;;;;;;;6.80;99.90;;;;;;5033308;28;20017;-46
2023/02/10 11:03:16;;;;;;;47.85;29.05;;;7.20;99.90;;;;;;5032400;28;19948;-48
2023/02/10 11:05:42;;;;;;;51.40;30.35;;;7.30;99.90;;;;;;5032419;28;20021;-49
2023/02/10 11:08:21;;;;;;;52.35;31.65;;;7.20;99.90;;;;;;5031601;28;20366;-46
2023/02/10 11:10:52;;;;;;;46.08;29.58;;;7.20;99.90;;;;;;5032709;28;20033;-47
2023/02/10 11:13:27;;;;;;;43.05;28.35;;;7.10;99.90;;;;;;5032359;28;20404;-45
2023/02/10 11:16:06;;;;;;;49.00;30.02;;;6.80;99.90;;;;;;5032452;28;20053;-49
2023/02/10 11:18:32;;;;;;;47.05;29.05;;;6.60;99.90;;;;;;5032961;28;20028;-52
2023/02/10 11:21:01;;;;;;;48.03;27.70;;;6.40;99.90;;;;;;5025344;28;20025;-49
2023/02/10 11:23:27;;;;;;;48.70;30.27;;;6.10;99.90;;;;;;5011808;28;20038;-45
2023/02/10 11:26:02;;;;;;;45.60;29.20;;;6.10;99.90;;;;;;5012320;28;20060;-48
2023/02/10 11:28:29;;;;;;;48.17;31.45;;;6.00;99.90;;;;;;4995585;28;20088;-44
2023/02/10 11:31:21;;;;;;;44.00;29.60;;;6.00;99.90;;;;;;5012871;28;20034;-48
2023/02/10 11:34:17;;;;;;;53.70;31.80;;;6.10;99.90;;;;;;4990375;28;20070;-46
2023/02/10 11:36:44;;;;;;;48.67;29.80;;;;;;;;;;4994882;28;20033;-56
2023/02/10 11:39:31;;;;;;;47.92;30.48;;;6.10;99.90;;;;;;5012552;28;20041;-54
2023/02/10 11:41:57;;;;;;;55.22;31.77;;;6.10;99.90;;;;;;5012617;28;20037;-52
2023/02/10 11:44:25;;;;;;;56.88;31.02;;;6.00;99.90;;;;;;5010845;28;20538;-48
2023/02/10 11:47:01;;;;;;;46.65;29.48;;;6.00;99.90;;;;;;5009750;28;20034;-47
2023/02/10 11:49:31;;;;;;;52.05;29.92;;;6.00;99.90;;;;;;5011008;28;20516;-48
2023/02/10 11:51:59;;;;;;;48.92;29.77;;;6.00;99.90;;;;;;5010826;28;20025;-47
2023/02/10 11:54:25;;;;;;;54.72;31.73;;;6.10;99.90;;;;;;4993113;28;20044;-47
2023/02/10 12:00:31;;;;;;;45.35;29.02;;;6.30;99.90;;;;;;5011880;28;20033;-48
2023/02/10 12:03:00;;;;;;;46.28;29.98;;;6.30;99.90;;;;;;5011671;28;20036;-50
2023/02/10 12:05:53;;;;;;;48.90;29.58;;;6.20;99.90;;;;;;5011547;28;20076;-48
2023/02/10 12:08:44;;;;;;;45.55;28.30;;;6.30;99.90;;;;;;5012214;28;20044;-46
2023/02/10 12:11:31;;;;;;;44.55;28.02;;;6.40;99.90;;;;;;5012025;28;20498;-47
2023/02/10 12:14:02;;;;;;;45.78;29.45;;;6.50;99.90;;;;;;5011241;28;20394;-44
2023/02/10 12:16:50;;;;;;;42.17;27.80;;;6.50;99.90;;;;;;5011537;28;20029;-45
2023/02/10 12:19:26;;;;;;;43.38;26.08;;;6.40;99.90;;;;;;5011661;28;20028;-47
2023/02/10 12:22:20;;;;;;;51.40;27.65;;;6.30;99.90;;;;;;5011673;28;20030;-46
2023/02/10 12:25:05;;;;;;;45.88;28.48;;;6.30;99.90;;;;;;5011530;28;20406;-46
2023/02/10 12:27:55;;;;;;;46.70;26.57;;;6.20;99.90;;;;;;5012450;28;20029;-47
2023/02/10 12:30:48;;;;;;;44.78;27.45;;;6.10;99.90;;;;;;4994175;28;20032;-46
2023/02/10 12:33:31;;;;;;;48.72;27.90;;;6.00;99.90;;;;;;5011124;28;20033;-44
2023/02/10 12:36:14;;;;;;;49.28;28.55;;;5.90;99.90;;;;;;5011163;28;20054;-48
2023/02/10 12:39:19;;;;;;;47.55;28.45;;;5.90;99.90;;;;;;5012054;28;20026;-48
2023/02/10 12:42:06;;;;;;;49.15;29.27;;;5.90;99.90;;;;;;5015044;28;20024;-46
2023/02/10 12:44:46;;;;;;;45.72;27.52;;;6.00;99.90;;;;;;5022299;28;20396;-46
2023/02/10 12:47:33;;;;;;;46.42;28.42;;;6.00;99.90;;;;;;5016521;28;20028;-44
2023/02/10 12:50:36;;;;;;;46.88;27.70;;;6.00;99.90;;;;;;5015669;28;20101;-43